Time,TemperatureF,DewpointF,PressureIn,WindDirection,WindDirectionDegrees,WindSpeedMPH,WindSpeedGustMPH,Humidity,HourlyPrecipIn,Conditions,Clouds,dailyrainin,SoftwareType,DateUTC
2013-05-31 00:01:00,63.7,61.7,30.09,SSW,196,3.0,4.0,93,0.00,,,0.01,meteohub,2013-05-31 04:01:00,
2013-05-31 00:06:00,63.7,61.9,30.09,SSW,211,3.0,5.0,94,0.00,,,0.00,meteohub,2013-05-31 04:06:00,
2013-05-31 00:11:00,63.5,61.5,30.09,SW,215,3.0,5.0,93,0.00,,,0.00,meteohub,2013-05-31 04:11:00,
2013-05-31 00:16:00,63.5,61.7,30.09,WSW,242,0.0,5.0,94,0.00,,,0.00,meteohub,2013-05-31 04:16:00,
2013-05-31 00:21:00,63.3,61.5,30.09,SSW,212,4.0,5.0,94,0.00,,,0.00,meteohub,2013-05-31 04:21:00,
2013-05-31 00:26:00,63.3,61.5,30.09,South,191,2.0,4.0,94,0.00,,,0.00,meteohub,2013-05-31 04:26:00,
2013-05-31 00:31:00,63.3,61.5,30.09,SSW,207,3.0,4.0,94,0.00,,,0.00,meteohub,2013-05-31 04:31:00,
2013-05-31 00:36:00,63.3,61.5,30.09,SSW,210,4.0,5.0,94,0.00,,,0.00,meteohub,2013-05-31 04:36:00,
2013-05-31 00:41:00,63.3,61.5,30.09,South,190,3.0,5.0,94,0.00,,,0.00,meteohub,2013-05-31 04:41:00,
2013-05-31 00:46:00,63.1,61.3,30.09,SSW,201,2.0,6.0,94,0.00,,,0.00,meteohub,2013-05-31 04:46:00,
2013-05-31 00:51:00,63.1,61.2,30.09,South,191,3.0,6.0,93,0.00,,,0.00,meteohub,2013-05-31 04:51:00,
2013-05-31 00:56:00,63.1,61.3,30.09,South,188,2.0,6.0,94,0.00,,,0.00,meteohub,2013-05-31 04:56:00,
2013-05-31 01:02:00,63.1,61.3,30.09,SW,214,3.0,5.0,94,0.00,,,0.00,meteohub,2013-05-31 05:02:00,
2013-05-31 01:07:00,63.1,61.2,30.09,SSW,193,0.0,5.0,93,0.00,,,0.00,meteohub,2013-05-31 05:07:00,
2013-05-31 01:12:00,63.1,61.3,30.09,SSW,204,3.0,5.0,94,0.00,,,0.00,meteohub,2013-05-31 05:12:00,
2013-05-31 01:17:00,63.0,61.2,30.09,SSW,210,2.0,5.0,94,0.00,,,0.00,meteohub,2013-05-31 05:17:00,
2013-05-31 01:22:00,63.0,61.2,30.09,SSW,201,0.0,4.0,94,0.00,,,0.00,meteohub,2013-05-31 05:22:00,
2013-05-31 01:27:00,62.8,61.0,30.09,SSW,208,2.0,4.0,94,0.00,,,0.00,meteohub,2013-05-31 05:27:00,
2013-05-31 01:32:00,62.8,61.3,30.09,SSW,207,3.0,5.0,95,0.00,,,0.00,meteohub,2013-05-31 05:32:00,
2013-05-31 01:37:00,63.0,61.2,30.09,SSW,200,5.0,5.0,94,0.00,,,0.00,meteohub,2013-05-31 05:37:00,
2013-05-31 01:42:00,63.0,61.2,30.09,SSW,195,3.0,5.0,94,0.00,,,0.00,meteohub,2013-05-31 05:42:00,
2013-05-31 01:47:00,63.0,61.2,30.09,SSW,210,5.0,6.0,94,0.00,,,0.00,meteohub,2013-05-31 05:47:00,
2013-05-31 01:52:00,63.0,61.2,30.09,SW,219,3.0,6.0,94,0.00,,,0.00,meteohub,2013-05-31 05:52:00,
2013-05-31 01:57:00,63.0,61.2,30.09,SSW,210,3.0,6.0,94,0.00,,,0.00,meteohub,2013-05-31 05:57:00,
2013-05-31 02:02:00,63.0,61.2,30.09,SW,218,3.0,6.0,94,0.00,,,0.00,meteohub,2013-05-31 06:02:00,
2013-05-31 02:07:00,63.0,61.5,30.09,SSW,200,2.0,6.0,95,0.00,,,0.00,meteohub,2013-05-31 06:07:00,
2013-05-31 02:12:00,63.1,61.7,30.09,SSW,198,4.0,6.0,95,0.00,,,0.00,meteohub,2013-05-31 06:12:00,
2013-05-31 02:17:00,63.3,61.9,30.09,SSW,203,2.0,5.0,95,0.00,,,0.00,meteohub,2013-05-31 06:17:00,
2013-05-31 02:22:00,63.1,61.3,30.09,South,181,3.0,5.0,94,0.00,,,0.00,meteohub,2013-05-31 06:22:00,
2013-05-31 02:27:00,62.8,61.0,30.09,SSW,195,1.0,5.0,94,0.00,,,0.00,meteohub,2013-05-31 06:27:00,
2013-05-31 02:32:00,62.8,61.3,30.09,SW,235,0.0,3.0,95,0.00,,,0.00,meteohub,2013-05-31 06:32:00,
2013-05-31 02:37:00,63.0,61.5,30.09,SSW,193,3.0,3.0,95,0.00,,,0.00,meteohub,2013-05-31 06:37:00,
2013-05-31 02:42:00,63.0,61.5,30.09,SSW,211,4.0,4.0,95,0.00,,,0.00,meteohub,2013-05-31 06:42:00,
2013-05-31 02:47:00,63.0,61.2,30.09,South,169,1.0,4.0,94,0.00,,,0.00,meteohub,2013-05-31 06:47:00,
2013-05-31 02:52:00,62.8,61.0,30.08,SSE,158,1.0,4.0,94,0.00,,,0.00,meteohub,2013-05-31 06:52:00,
2013-05-31 02:57:00,62.8,61.3,30.08,South,169,0.0,4.0,95,0.00,,,0.00,meteohub,2013-05-31 06:57:00,
2013-05-31 03:02:00,62.6,61.2,30.08,SSW,207,2.0,3.0,95,0.00,,,0.00,meteohub,2013-05-31 07:02:00,
2013-05-31 03:07:00,62.8,61.7,30.08,SSW,195,3.0,4.0,96,0.00,,,0.00,meteohub,2013-05-31 07:07:00,
2013-05-31 03:12:00,63.0,61.5,30.08,SSW,211,3.0,6.0,95,0.00,,,0.00,meteohub,2013-05-31 07:12:00,
2013-05-31 03:17:00,63.0,61.9,30.08,SSW,210,1.0,6.0,96,0.00,,,0.00,meteohub,2013-05-31 07:17:00,
2013-05-31 03:22:00,63.0,61.5,30.08,SW,236,0.0,6.0,95,0.00,,,0.00,meteohub,2013-05-31 07:22:00,
2013-05-31 03:27:00,63.0,61.5,30.08,SSE,160,0.0,4.0,95,0.00,,,0.00,meteohub,2013-05-31 07:27:00,
2013-05-31 03:32:00,62.8,61.3,30.08,SSE,160,0.0,3.0,95,0.00,,,0.00,meteohub,2013-05-31 07:32:00,
2013-05-31 03:37:00,62.6,61.5,30.08,SSE,160,0.0,2.0,96,0.00,,,0.00,meteohub,2013-05-31 07:37:00,
2013-05-31 03:42:00,62.4,61.3,30.08,SSW,197,1.0,0.0,96,0.00,,,0.00,meteohub,2013-05-31 07:42:00,
2013-05-31 03:47:00,62.4,61.3,30.08,SW,220,0.0,2.0,96,0.00,,,0.00,meteohub,2013-05-31 07:47:00,
2013-05-31 03:52:00,62.4,61.3,30.09,SSW,204,2.0,2.0,96,0.00,,,0.00,meteohub,2013-05-31 07:52:00,
2013-05-31 03:57:00,62.4,61.5,30.09,SSW,212,2.0,3.0,97,0.00,,,0.00,meteohub,2013-05-31 07:57:00,
2013-05-31 04:02:00,62.4,61.5,30.09,South,176,0.0,3.0,97,0.00,,,0.00,meteohub,2013-05-31 08:02:00,
2013-05-31 04:07:00,62.4,61.5,30.09,SW,225,3.0,4.0,97,0.00,,,0.00,meteohub,2013-05-31 08:07:00,
2013-05-31 04:12:00,62.2,61.3,30.09,SW,225,0.0,4.0,97,0.00,,,0.00,meteohub,2013-05-31 08:12:00,
2013-05-31 04:17:00,62.2,61.3,30.09,SSW,200,1.0,4.0,97,0.00,,,0.00,meteohub,2013-05-31 08:17:00,
2013-05-31 04:22:00,62.2,61.3,30.09,SW,217,1.0,3.0,97,0.00,,,0.00,meteohub,2013-05-31 08:22:00,
2013-05-31 04:27:00,62.2,61.3,30.09,South,178,3.0,3.0,97,0.00,,,0.00,meteohub,2013-05-31 08:27:00,
2013-05-31 04:32:00,61.9,61.0,30.09,SSE,163,2.0,4.0,97,0.00,,,0.00,meteohub,2013-05-31 08:32:00,
2013-05-31 04:37:00,61.9,61.0,30.09,SSW,212,2.0,4.0,97,0.00,,,0.00,meteohub,2013-05-31 08:37:00,
2013-05-31 04:42:00,62.1,61.5,30.09,South,180,0.0,4.0,98,0.00,,,0.00,meteohub,2013-05-31 08:42:00,
2013-05-31 04:47:00,62.1,61.2,30.09,South,175,0.0,4.0,97,0.00,,,0.00,meteohub,2013-05-31 08:47:00,
2013-05-31 04:52:00,61.9,61.0,30.09,South,173,1.0,4.0,97,0.00,,,0.00,meteohub,2013-05-31 08:52:00,
2013-05-31 04:57:00,61.7,60.8,30.09,SSW,205,0.0,4.0,97,0.00,,,0.00,meteohub,2013-05-31 08:57:00,
2013-05-31 05:02:00,61.5,60.6,30.09,South,180,3.0,4.0,97,0.00,,,0.00,meteohub,2013-05-31 09:02:00,
2013-05-31 05:07:00,61.5,61.0,30.09,SSW,200,0.0,4.0,98,0.00,,,0.00,meteohub,2013-05-31 09:07:00,
2013-05-31 05:11:00,61.5,61.0,30.09,SSW,204,0.0,4.0,98,0.00,,,0.00,meteohub,2013-05-31 09:11:00,
2013-05-31 05:16:00,61.9,61.3,30.09,SSW,211,2.0,4.0,98,0.00,,,0.00,meteohub,2013-05-31 09:16:00,
2013-05-31 05:21:00,62.1,61.5,30.09,SSW,197,2.0,4.0,98,0.00,,,0.00,meteohub,2013-05-31 09:21:00,
2013-05-31 05:26:00,62.1,61.5,30.09,SSW,194,2.0,3.0,98,0.00,,,0.00,meteohub,2013-05-31 09:26:00,
2013-05-31 05:31:00,62.1,61.5,30.10,SSW,194,2.0,3.0,98,0.00,,,0.00,meteohub,2013-05-31 09:31:00,
2013-05-31 05:37:00,62.1,61.2,30.10,SSW,211,2.0,5.0,97,0.00,,,0.00,meteohub,2013-05-31 09:37:00,
2013-05-31 05:42:00,62.1,61.2,30.10,SSW,210,3.0,5.0,97,0.00,,,0.00,meteohub,2013-05-31 09:42:00,
2013-05-31 05:46:00,62.1,61.2,30.10,SSW,203,3.0,4.0,97,0.00,,,0.00,meteohub,2013-05-31 09:46:00,
2013-05-31 05:52:00,62.2,61.3,30.10,SSW,210,2.0,4.0,97,0.00,,,0.00,meteohub,2013-05-31 09:52:00,
2013-05-31 05:57:00,62.4,61.5,30.10,SSW,204,0.0,5.0,97,0.00,,,0.00,meteohub,2013-05-31 09:57:00,
2013-05-31 06:02:00,62.4,61.3,30.10,SSW,210,0.0,5.0,96,0.00,,,0.00,meteohub,2013-05-31 10:02:00,
2013-05-31 06:07:00,62.4,61.3,30.10,SW,221,1.0,3.0,96,0.00,,,0.00,meteohub,2013-05-31 10:07:00,
2013-05-31 06:12:00,62.8,61.7,30.10,SSW,201,1.0,3.0,96,0.00,,,0.00,meteohub,2013-05-31 10:12:00,
2013-05-31 06:17:00,63.0,61.9,30.10,SSW,204,1.0,2.0,96,0.00,,,0.00,meteohub,2013-05-31 10:17:00,
2013-05-31 06:22:00,63.0,61.5,30.10,South,187,1.0,2.0,95,0.00,,,0.00,meteohub,2013-05-31 10:22:00,
2013-05-31 06:27:00,63.1,61.7,30.10,South,180,1.0,3.0,95,0.00,,,0.00,meteohub,2013-05-31 10:27:00,
2013-05-31 06:32:00,63.5,62.1,30.10,SSE,153,0.0,3.0,95,0.00,,,0.00,meteohub,2013-05-31 10:32:00,
2013-05-31 06:37:00,64.0,62.2,30.10,SSE,167,0.0,3.0,94,0.00,,,0.00,meteohub,2013-05-31 10:37:00,
2013-05-31 06:42:00,64.8,63.0,30.11,SSE,167,0.0,3.0,94,0.00,,,0.00,meteohub,2013-05-31 10:42:00,
2013-05-31 06:47:00,65.1,62.8,30.11,South,187,0.0,0.0,92,0.00,,,0.00,meteohub,2013-05-31 10:47:00,
2013-05-31 06:52:00,65.5,62.8,30.10,South,181,2.0,0.0,91,0.00,,,0.00,meteohub,2013-05-31 10:52:00,
2013-05-31 06:57:00,65.7,62.6,30.11,SSW,198,3.0,3.0,90,0.00,,,0.00,meteohub,2013-05-31 10:57:00,
2013-05-31 07:02:00,65.7,63.0,30.11,SSW,205,3.0,3.0,91,0.00,,,0.00,meteohub,2013-05-31 11:02:00,
2013-05-31 07:07:00,65.7,63.0,30.11,SSW,210,3.0,4.0,91,0.00,,,0.00,meteohub,2013-05-31 11:07:00,
2013-05-31 07:12:00,65.5,62.8,30.12,SW,225,3.0,4.0,91,0.00,,,0.00,meteohub,2013-05-31 11:12:00,
2013-05-31 07:17:00,65.7,63.0,30.12,South,190,4.0,4.0,91,0.00,,,0.00,meteohub,2013-05-31 11:17:00,
2013-05-31 07:22:00,66.0,63.3,30.12,SSW,212,3.0,4.0,91,0.00,,,0.00,meteohub,2013-05-31 11:22:00,
2013-05-31 07:27:00,66.2,63.5,30.12,SSW,197,2.0,4.0,91,0.00,,,0.00,meteohub,2013-05-31 11:27:00,
2013-05-31 07:32:00,66.7,63.7,30.12,SSW,201,1.0,4.0,90,0.00,,,0.00,meteohub,2013-05-31 11:32:00,
2013-05-31 07:37:00,67.5,64.4,30.12,SSW,201,1.0,4.0,90,0.00,,,0.00,meteohub,2013-05-31 11:37:00,
2013-05-31 07:42:00,68.2,64.8,30.12,SSW,201,0.0,4.0,89,0.00,,,0.00,meteohub,2013-05-31 11:42:00,
2013-05-31 07:47:00,68.9,64.9,30.12,South,176,2.0,2.0,87,0.00,,,0.00,meteohub,2013-05-31 11:47:00,
2013-05-31 07:52:00,69.3,64.9,30.12,SSW,198,1.0,2.0,86,0.00,,,0.00,meteohub,2013-05-31 11:52:00,
2013-05-31 07:57:00,69.6,65.3,30.12,South,191,1.0,3.0,86,0.00,,,0.00,meteohub,2013-05-31 11:57:00,
2013-05-31 08:02:00,70.3,65.7,30.12,SSW,193,2.0,3.0,85,0.00,,,0.00,meteohub,2013-05-31 12:02:00,
2013-05-31 08:07:00,70.5,65.5,30.12,South,187,1.0,3.0,84,0.00,,,0.00,meteohub,2013-05-31 12:07:00,
2013-05-31 08:12:00,71.1,66.0,30.12,SSW,210,1.0,3.0,84,0.00,,,0.00,meteohub,2013-05-31 12:12:00,
2013-05-31 08:17:00,71.1,66.0,30.12,SSW,200,2.0,4.0,84,0.00,,,0.00,meteohub,2013-05-31 12:17:00,
2013-05-31 08:22:00,71.1,65.7,30.12,SSW,212,5.0,5.0,83,0.00,,,0.00,meteohub,2013-05-31 12:22:00,
2013-05-31 08:27:00,70.3,64.9,30.12,SSW,205,4.0,6.0,83,0.00,,,0.00,meteohub,2013-05-31 12:27:00,
2013-05-31 08:32:00,70.5,65.5,30.12,SSW,212,3.0,6.0,84,0.00,,,0.00,meteohub,2013-05-31 12:32:00,
2013-05-31 08:37:00,71.1,66.0,30.12,SW,229,0.0,6.0,84,0.00,,,0.00,meteohub,2013-05-31 12:37:00,
2013-05-31 08:42:00,71.8,66.7,30.12,SSW,204,1.0,4.0,84,0.00,,,0.00,meteohub,2013-05-31 12:42:00,
2013-05-31 08:47:00,72.7,67.3,30.12,SSW,207,1.0,3.0,83,0.00,,,0.00,meteohub,2013-05-31 12:47:00,
2013-05-31 08:52:00,73.9,67.8,30.12,SSW,210,1.0,2.0,81,0.00,,,0.00,meteohub,2013-05-31 12:52:00,
2013-05-31 08:57:00,74.5,67.8,30.11,SSE,165,3.0,3.0,80,0.00,,,0.00,meteohub,2013-05-31 12:57:00,
2013-05-31 09:02:00,74.8,67.5,30.11,SSW,203,2.0,3.0,78,0.00,,,0.00,meteohub,2013-05-31 13:02:00,
2013-05-31 09:07:00,74.8,67.8,30.11,SSW,195,2.0,3.0,79,0.00,,,0.00,meteohub,2013-05-31 13:07:00,
2013-05-31 09:12:00,75.0,68.0,30.11,SSW,203,3.0,3.0,79,0.00,,,0.00,meteohub,2013-05-31 13:12:00,
2013-05-31 09:17:00,75.4,68.0,30.11,SSW,210,4.0,4.0,78,0.00,,,0.00,meteohub,2013-05-31 13:17:00,
2013-05-31 09:22:00,74.8,67.5,30.11,SW,214,5.0,6.0,78,0.00,,,0.00,meteohub,2013-05-31 13:22:00,
2013-05-31 09:27:00,74.1,67.1,30.11,SSW,201,3.0,7.0,79,0.00,,,0.00,meteohub,2013-05-31 13:27:00,
2013-05-31 09:32:00,74.1,67.6,30.11,South,188,5.0,7.0,80,0.00,,,0.00,meteohub,2013-05-31 13:32:00,
2013-05-31 09:37:00,73.8,66.4,30.11,South,190,5.0,7.0,78,0.00,,,0.00,meteohub,2013-05-31 13:37:00,
2013-05-31 09:42:00,73.6,66.7,30.11,SSW,195,6.0,7.0,79,0.00,,,0.00,meteohub,2013-05-31 13:42:00,
2013-05-31 09:47:00,73.6,66.7,30.11,South,183,4.0,7.0,79,0.00,,,0.00,meteohub,2013-05-31 13:47:00,
2013-05-31 09:52:00,73.9,67.1,30.11,SSE,162,3.0,7.0,79,0.00,,,0.00,meteohub,2013-05-31 13:52:00,
2013-05-31 09:57:00,74.5,67.5,30.10,South,173,3.0,7.0,79,0.00,,,0.00,meteohub,2013-05-31 13:57:00,
2013-05-31 10:02:00,75.2,67.5,30.10,South,174,3.0,5.0,77,0.00,,,0.00,meteohub,2013-05-31 14:02:00,
2013-05-31 10:07:00,75.7,68.0,30.10,South,172,3.0,5.0,77,0.00,,,0.00,meteohub,2013-05-31 14:07:00,
2013-05-31 10:12:00,76.1,68.4,30.10,SSW,198,4.0,6.0,77,0.00,,,0.00,meteohub,2013-05-31 14:12:00,
2013-05-31 10:17:00,76.6,68.5,30.10,SW,218,3.0,6.0,76,0.00,,,0.00,meteohub,2013-05-31 14:17:00,
2013-05-31 10:22:00,77.2,69.1,30.10,SSW,205,1.0,6.0,76,0.00,,,0.00,meteohub,2013-05-31 14:22:00,
2013-05-31 10:27:00,77.5,68.9,30.10,South,176,3.0,5.0,75,0.00,,,0.00,meteohub,2013-05-31 14:27:00,
2013-05-31 10:32:00,78.3,69.6,30.10,South,174,3.0,4.0,75,0.00,,,0.00,meteohub,2013-05-31 14:32:00,
2013-05-31 10:37:00,78.8,69.4,30.10,South,174,5.0,5.0,73,0.00,,,0.00,meteohub,2013-05-31 14:37:00,
2013-05-31 10:42:00,78.8,69.1,30.10,SSW,200,4.0,5.0,72,0.00,,,0.00,meteohub,2013-05-31 14:42:00,
2013-05-31 10:47:00,78.6,69.3,30.10,South,179,4.0,6.0,73,0.00,,,0.00,meteohub,2013-05-31 14:47:00,
2013-05-31 10:52:00,78.6,68.9,30.10,South,172,4.0,6.0,72,0.00,,,0.00,meteohub,2013-05-31 14:52:00,
2013-05-31 10:57:00,78.6,68.9,30.10,SSW,200,3.0,6.0,72,0.00,,,0.00,meteohub,2013-05-31 14:57:00,
2013-05-31 11:02:00,78.6,68.9,30.10,South,186,5.0,6.0,72,0.00,,,0.00,meteohub,2013-05-31 15:02:00,
2013-05-31 11:07:00,79.0,69.3,30.10,SSW,198,3.0,6.0,72,0.00,,,0.00,meteohub,2013-05-31 15:07:00,
2013-05-31 11:12:00,79.2,69.3,30.10,SSW,194,3.0,6.0,72,0.00,,,0.00,meteohub,2013-05-31 15:12:00,
2013-05-31 11:17:00,79.5,69.6,30.09,SSE,155,2.0,6.0,72,0.00,,,0.00,meteohub,2013-05-31 15:17:00,
2013-05-31 11:22:00,79.9,69.3,30.09,South,188,3.0,5.0,70,0.00,,,0.00,meteohub,2013-05-31 15:22:00,
2013-05-31 11:27:00,80.1,69.4,30.09,South,173,2.0,7.0,70,0.00,,,0.00,meteohub,2013-05-31 15:27:00,
2013-05-31 11:32:00,80.4,69.3,30.09,SSW,210,3.0,7.0,69,0.00,,,0.00,meteohub,2013-05-31 15:32:00,
2013-05-31 11:37:00,80.6,69.1,30.09,SSW,195,3.0,7.0,68,0.00,,,0.00,meteohub,2013-05-31 15:37:00,
2013-05-31 11:42:00,80.1,68.9,30.09,SSW,203,3.0,6.0,69,0.00,,,0.00,meteohub,2013-05-31 15:42:00,
2013-05-31 11:47:00,79.9,68.4,30.09,SSW,197,4.0,6.0,68,0.00,,,0.00,meteohub,2013-05-31 15:47:00,
2013-05-31 11:52:00,79.5,68.9,30.09,South,187,5.0,6.0,70,0.00,,,0.00,meteohub,2013-05-31 15:52:00,
2013-05-31 11:57:00,79.3,68.7,30.09,SSW,204,5.0,6.0,70,0.00,,,0.00,meteohub,2013-05-31 15:57:00,
2013-05-31 12:02:00,78.6,68.4,30.09,South,183,5.0,8.0,71,0.00,,,0.00,meteohub,2013-05-31 16:02:00,
2013-05-31 12:07:00,78.1,68.4,30.09,SSW,211,6.0,8.0,72,0.00,,,0.00,meteohub,2013-05-31 16:07:00,
2013-05-31 12:12:00,77.0,67.6,30.09,SW,221,8.0,10.0,73,0.00,,,0.00,meteohub,2013-05-31 16:12:00,
2013-05-31 12:17:00,76.5,68.4,30.09,South,183,7.0,10.0,76,0.00,,,0.00,meteohub,2013-05-31 16:17:00,
2013-05-31 12:22:00,76.5,68.0,30.09,South,179,5.0,10.0,75,0.00,,,0.00,meteohub,2013-05-31 16:22:00,
2013-05-31 12:27:00,76.6,68.5,30.09,South,191,7.0,10.0,76,0.00,,,0.00,meteohub,2013-05-31 16:27:00,
2013-05-31 12:32:00,76.6,68.5,30.09,South,181,6.0,11.0,76,0.00,,,0.00,meteohub,2013-05-31 16:32:00,
2013-05-31 12:37:00,76.8,68.7,30.09,SSW,210,6.0,11.0,76,0.00,,,0.00,meteohub,2013-05-31 16:37:00,
2013-05-31 12:42:00,76.6,68.2,30.09,SW,219,5.0,10.0,75,0.00,,,0.00,meteohub,2013-05-31 16:42:00,
2013-05-31 12:47:00,76.6,68.2,30.08,SSW,208,8.0,10.0,75,0.00,,,0.00,meteohub,2013-05-31 16:47:00,
2013-05-31 12:52:00,76.5,68.0,30.09,South,187,6.0,9.0,75,0.00,,,0.00,meteohub,2013-05-31 16:52:00,
2013-05-31 12:57:00,76.1,67.3,30.09,SSW,211,9.0,10.0,74,0.00,,,0.00,meteohub,2013-05-31 16:57:00,
2013-05-31 13:02:00,75.7,67.6,30.09,SSW,197,9.0,10.0,76,0.00,,,0.00,meteohub,2013-05-31 17:02:00,
2013-05-31 13:07:00,75.0,66.9,30.08,SSW,212,10.0,13.0,76,0.00,,,0.00,meteohub,2013-05-31 17:07:00,
2013-05-31 13:12:00,75.4,67.6,30.08,SSW,211,7.0,13.0,77,0.00,,,0.00,meteohub,2013-05-31 17:12:00,
2013-05-31 13:17:00,75.7,67.6,30.08,SSW,203,6.0,13.0,76,0.00,,,0.00,meteohub,2013-05-31 17:17:00,
2013-05-31 13:22:00,75.9,67.8,30.08,SSW,200,8.0,11.0,76,0.00,,,0.00,meteohub,2013-05-31 17:22:00,
2013-05-31 13:27:00,76.3,67.8,30.07,South,188,5.0,9.0,75,0.00,,,0.00,meteohub,2013-05-31 17:27:00,
2013-05-31 13:32:00,76.6,68.2,30.07,South,176,3.0,9.0,75,0.00,,,0.00,meteohub,2013-05-31 17:32:00,
2013-05-31 13:37:00,77.4,68.4,30.07,SSW,198,6.0,9.0,74,0.00,,,0.00,meteohub,2013-05-31 17:37:00,
2013-05-31 13:42:00,77.7,68.4,30.07,SSW,203,6.0,9.0,73,0.00,,,0.00,meteohub,2013-05-31 17:42:00,
2013-05-31 13:47:00,77.7,68.4,30.07,South,170,7.0,9.0,73,0.00,,,0.00,meteohub,2013-05-31 17:47:00,
2013-05-31 13:52:00,77.7,68.7,30.07,SSW,198,8.0,10.0,74,0.00,,,0.00,meteohub,2013-05-31 17:52:00,
2013-05-31 13:57:00,77.9,68.2,30.06,SSW,208,11.0,12.0,72,0.00,,,0.00,meteohub,2013-05-31 17:57:00,
2013-05-31 14:02:00,77.4,68.0,30.06,SSW,200,10.0,12.0,73,0.00,,,0.00,meteohub,2013-05-31 18:02:00,
2013-05-31 14:07:00,76.5,67.6,30.06,SSE,161,10.0,12.0,74,0.00,,,0.00,meteohub,2013-05-31 18:07:00,
2013-05-31 14:12:00,75.9,67.5,30.07,SSW,194,10.0,12.0,75,0.00,,,0.00,meteohub,2013-05-31 18:12:00,
2013-05-31 14:17:00,75.6,67.5,30.06,South,184,9.0,12.0,76,0.00,,,0.00,meteohub,2013-05-31 18:17:00,
2013-05-31 14:22:00,75.6,67.5,30.06,SSW,197,10.0,12.0,76,0.00,,,0.00,meteohub,2013-05-31 18:22:00,
2013-05-31 14:27:00,75.7,67.6,30.06,SSW,195,6.0,12.0,76,0.00,,,0.00,meteohub,2013-05-31 18:27:00,
2013-05-31 14:32:00,75.9,67.8,30.06,SSW,200,9.0,11.0,76,0.00,,,0.00,meteohub,2013-05-31 18:32:00,
2013-05-31 14:37:00,75.9,67.5,30.06,South,184,7.0,12.0,75,0.00,,,0.00,meteohub,2013-05-31 18:37:00,
2013-05-31 14:42:00,75.7,67.3,30.06,SSW,198,10.0,13.0,75,0.00,,,0.00,meteohub,2013-05-31 18:42:00,
2013-05-31 14:47:00,75.6,66.7,30.06,SSW,207,8.0,13.0,74,0.00,,,0.00,meteohub,2013-05-31 18:47:00,
2013-05-31 14:52:00,75.4,67.3,30.06,South,190,12.0,13.0,76,0.00,,,0.00,meteohub,2013-05-31 18:52:00,
2013-05-31 14:57:00,75.0,66.9,30.06,SSW,208,11.0,13.0,76,0.00,,,0.00,meteohub,2013-05-31 18:57:00,
2013-05-31 15:02:00,74.5,66.7,30.06,SSW,208,8.0,13.0,77,0.00,,,0.00,meteohub,2013-05-31 19:02:00,
2013-05-31 15:07:00,73.9,66.6,30.06,SSW,204,8.0,13.0,78,0.00,,,0.00,meteohub,2013-05-31 19:07:00,
2013-05-31 15:12:00,73.8,66.9,30.05,South,187,9.0,12.0,79,0.00,,,0.00,meteohub,2013-05-31 19:12:00,
2013-05-31 15:17:00,73.9,67.1,30.05,SW,219,9.0,11.0,79,0.00,,,0.00,meteohub,2013-05-31 19:17:00,
2013-05-31 15:22:00,73.9,67.1,30.05,South,191,7.0,12.0,79,0.00,,,0.00,meteohub,2013-05-31 19:22:00,
2013-05-31 15:27:00,73.9,67.1,30.05,South,176,7.0,12.0,79,0.00,,,0.00,meteohub,2013-05-31 19:27:00,
2013-05-31 15:32:00,73.2,65.7,30.05,SSE,163,8.0,12.0,77,0.00,,,0.00,meteohub,2013-05-31 19:32:00,
2013-05-31 15:37:00,72.7,65.5,30.05,South,191,7.0,11.0,78,0.00,,,0.00,meteohub,2013-05-31 19:37:00,
2013-05-31 15:42:00,72.3,65.5,30.05,SSW,200,6.0,11.0,79,0.00,,,0.00,meteohub,2013-05-31 19:42:00,
2013-05-31 15:47:00,72.3,65.5,30.05,SSW,193,7.0,10.0,79,0.00,,,0.00,meteohub,2013-05-31 19:47:00,
2013-05-31 15:52:00,72.7,65.8,30.05,South,183,7.0,10.0,79,0.00,,,0.00,meteohub,2013-05-31 19:52:00,
2013-05-31 15:57:00,73.0,66.2,30.04,South,187,5.0,8.0,79,0.00,,,0.00,meteohub,2013-05-31 19:57:00,
2013-05-31 16:02:00,73.6,66.4,30.04,South,169,3.0,8.0,78,0.00,,,0.00,meteohub,2013-05-31 20:02:00,
2013-05-31 16:07:00,74.1,66.4,30.04,South,188,7.0,8.0,77,0.00,,,0.00,meteohub,2013-05-31 20:07:00,
2013-05-31 16:12:00,74.5,66.7,30.04,South,188,8.0,8.0,77,0.00,,,0.00,meteohub,2013-05-31 20:12:00,
2013-05-31 16:17:00,75.0,67.3,30.04,SSE,162,6.0,9.0,77,0.00,,,0.00,meteohub,2013-05-31 20:17:00,
2013-05-31 16:22:00,75.7,68.0,30.04,SW,214,8.0,10.0,77,0.00,,,0.00,meteohub,2013-05-31 20:22:00,
2013-05-31 16:27:00,77.4,68.4,30.04,SW,222,9.0,10.0,74,0.00,,,0.00,meteohub,2013-05-31 20:27:00,
2013-05-31 16:32:00,79.3,67.8,30.04,SW,226,6.0,13.0,68,0.00,,,0.00,meteohub,2013-05-31 20:32:00,
2013-05-31 16:37:00,80.4,68.5,30.03,SW,236,14.0,16.0,67,0.00,,,0.00,meteohub,2013-05-31 20:37:00,
2013-05-31 16:42:00,81.3,67.5,30.03,WSW,245,13.0,16.0,63,0.00,,,0.00,meteohub,2013-05-31 20:42:00,
2013-05-31 16:47:00,81.9,67.6,30.03,SW,226,7.0,17.0,62,0.00,,,0.00,meteohub,2013-05-31 20:47:00,
2013-05-31 16:52:00,82.0,67.6,30.03,SSW,198,9.0,18.0,62,0.00,,,0.00,meteohub,2013-05-31 20:52:00,
2013-05-31 16:57:00,81.9,68.0,30.03,SW,214,7.0,18.0,63,0.00,,,0.00,meteohub,2013-05-31 20:57:00,
2013-05-31 17:02:00,81.7,68.4,30.03,SW,226,8.0,19.0,64,0.00,,,0.00,meteohub,2013-05-31 21:02:00,
2013-05-31 17:07:00,81.7,68.4,30.03,SW,218,9.0,19.0,64,0.00,,,0.00,meteohub,2013-05-31 21:07:00,
2013-05-31 17:12:00,81.9,68.5,30.03,SW,219,7.0,19.0,64,0.00,,,0.00,meteohub,2013-05-31 21:12:00,
2013-05-31 17:17:00,82.0,69.1,30.02,SW,225,6.0,15.0,65,0.00,,,0.00,meteohub,2013-05-31 21:17:00,
2013-05-31 17:22:00,81.9,68.5,30.02,SW,214,11.0,19.0,64,0.00,,,0.00,meteohub,2013-05-31 21:22:00,
2013-05-31 17:27:00,81.7,69.3,30.02,SW,229,7.0,19.0,66,0.00,,,0.00,meteohub,2013-05-31 21:27:00,
2013-05-31 17:32:00,81.1,68.7,30.02,SSW,198,8.0,19.0,66,0.00,,,0.00,meteohub,2013-05-31 21:32:00,
2013-05-31 17:37:00,80.1,68.5,30.02,SSW,204,10.0,15.0,68,0.00,,,0.00,meteohub,2013-05-31 21:37:00,
2013-05-31 17:42:00,79.3,68.4,30.02,SSW,207,11.0,14.0,69,0.00,,,0.00,meteohub,2013-05-31 21:42:00,
2013-05-31 17:47:00,79.0,68.4,30.02,SSW,198,6.0,14.0,70,0.00,,,0.00,meteohub,2013-05-31 21:47:00,
2013-05-31 17:52:00,79.0,68.4,30.02,SSW,193,9.0,13.0,70,0.00,,,0.00,meteohub,2013-05-31 21:52:00,
2013-05-31 17:57:00,78.6,68.0,30.02,SSW,197,8.0,12.0,70,0.00,,,0.00,meteohub,2013-05-31 21:57:00,
2013-05-31 18:02:00,78.1,67.5,30.02,SSW,193,6.0,11.0,70,0.00,,,0.00,meteohub,2013-05-31 22:02:00,
2013-05-31 18:07:00,78.1,67.5,30.01,South,184,8.0,11.0,70,0.00,,,0.00,meteohub,2013-05-31 22:07:00,
2013-05-31 18:12:00,78.1,67.1,30.01,SW,214,8.0,11.0,69,0.00,,,0.00,meteohub,2013-05-31 22:12:00,
2013-05-31 18:17:00,78.3,67.3,30.01,SSW,208,7.0,11.0,69,0.00,,,0.00,meteohub,2013-05-31 22:17:00,
2013-05-31 18:22:00,78.3,66.7,30.01,SSW,205,8.0,11.0,68,0.00,,,0.00,meteohub,2013-05-31 22:22:00,
2013-05-31 18:27:00,78.1,65.8,30.01,SSW,204,11.0,12.0,66,0.00,,,0.00,meteohub,2013-05-31 22:27:00,
2013-05-31 18:32:00,78.1,66.2,30.01,SW,222,12.0,16.0,67,0.00,,,0.00,meteohub,2013-05-31 22:32:00,
2013-05-31 18:37:00,77.7,65.8,30.01,SW,226,7.0,16.0,67,0.00,,,0.00,meteohub,2013-05-31 22:37:00,
2013-05-31 18:42:00,77.5,65.7,30.01,WNW,288,2.0,14.0,67,0.00,,,0.00,meteohub,2013-05-31 22:42:00,
2013-05-31 18:47:00,77.5,66.2,30.01,SSW,195,5.0,14.0,68,0.00,,,0.00,meteohub,2013-05-31 22:47:00,
2013-05-31 18:52:00,77.5,65.7,30.01,SSW,212,6.0,13.0,67,0.00,,,0.00,meteohub,2013-05-31 22:52:00,
2013-05-31 18:57:00,77.5,66.2,30.01,SW,228,7.0,13.0,68,0.00,,,0.00,meteohub,2013-05-31 22:57:00,
2013-05-31 19:02:00,77.0,66.0,30.01,SW,233,6.0,12.0,69,0.00,,,0.00,meteohub,2013-05-31 23:02:00,
2013-05-31 19:07:00,76.8,65.8,30.01,SSW,206,5.0,12.0,69,0.00,,,0.00,meteohub,2013-05-31 23:07:00,
2013-05-31 19:12:00,76.6,65.7,30.01,SW,226,5.0,12.0,69,0.00,,,0.00,meteohub,2013-05-31 23:12:00,
2013-05-31 19:17:00,76.5,66.0,30.01,SW,222,6.0,12.0,70,0.00,,,0.00,meteohub,2013-05-31 23:17:00,
2013-05-31 19:22:00,76.5,66.0,30.01,SW,217,9.0,12.0,70,0.00,,,0.00,meteohub,2013-05-31 23:22:00,
2013-05-31 19:27:00,76.3,65.8,30.01,SW,230,6.0,12.0,70,0.00,,,0.00,meteohub,2013-05-31 23:27:00,
2013-05-31 19:32:00,76.1,65.7,30.01,SW,215,8.0,12.0,70,0.00,,,0.00,meteohub,2013-05-31 23:32:00,
2013-05-31 19:37:00,75.9,65.8,30.01,SW,214,5.0,12.0,71,0.00,,,0.00,meteohub,2013-05-31 23:37:00,
2013-05-31 19:42:00,75.6,65.5,30.01,SW,216,5.0,9.0,71,0.00,,,0.00,meteohub,2013-05-31 23:42:00,
2013-05-31 19:47:00,75.2,65.5,30.01,SW,217,5.0,10.0,72,0.00,,,0.00,meteohub,2013-05-31 23:47:00,
2013-05-31 19:52:00,74.8,65.7,30.01,SSW,200,7.0,11.0,73,0.00,,,0.00,meteohub,2013-05-31 23:52:00,
2013-05-31 19:57:00,74.7,65.5,30.01,SSW,201,4.0,11.0,73,0.00,,,0.00,meteohub,2013-05-31 23:57:00,
2013-05-31 20:02:00,74.1,65.3,30.01,SSW,212,5.0,11.0,74,0.00,,,0.00,meteohub,2013-06-01 00:02:00,
2013-05-31 20:07:00,73.6,65.1,30.01,South,176,6.0,8.0,75,0.00,,,0.00,meteohub,2013-06-01 00:07:00,
2013-05-31 20:12:00,73.0,64.9,30.01,SSW,212,7.0,8.0,76,0.00,,,0.00,meteohub,2013-06-01 00:12:00,
2013-05-31 20:17:00,72.5,64.6,30.01,SSW,210,5.0,9.0,76,0.00,,,0.00,meteohub,2013-06-01 00:17:00,
2013-05-31 20:22:00,72.1,64.6,30.01,SSW,203,7.0,9.0,77,0.00,,,0.00,meteohub,2013-06-01 00:22:00,
2013-05-31 20:27:00,71.8,64.2,30.01,SSW,205,6.0,8.0,77,0.00,,,0.00,meteohub,2013-06-01 00:27:00,
2013-05-31 20:32:00,71.4,64.2,30.01,SW,230,4.0,9.0,78,0.00,,,0.00,meteohub,2013-06-01 00:32:00,
2013-05-31 20:37:00,71.1,63.9,30.01,SSW,197,5.0,9.0,78,0.00,,,0.00,meteohub,2013-06-01 00:37:00,
2013-05-31 20:42:00,70.7,63.9,30.01,SW,219,2.0,9.0,79,0.00,,,0.00,meteohub,2013-06-01 00:42:00,
2013-05-31 20:47:00,70.3,63.5,30.02,SSW,210,6.0,7.0,79,0.00,,,0.00,meteohub,2013-06-01 00:47:00,
2013-05-31 20:52:00,70.0,63.1,30.02,SSW,210,6.0,7.0,79,0.00,,,0.00,meteohub,2013-06-01 00:52:00,
2013-05-31 20:57:00,69.6,63.1,30.02,SSW,205,3.0,7.0,80,0.00,,,0.00,meteohub,2013-06-01 00:57:00,
2013-05-31 21:02:00,69.4,63.3,30.02,SW,214,3.0,7.0,81,0.00,,,0.00,meteohub,2013-06-01 01:02:00,
2013-05-31 21:07:00,69.3,63.1,30.02,SSW,207,4.0,7.0,81,0.00,,,0.00,meteohub,2013-06-01 01:07:00,
2013-05-31 21:12:00,68.9,62.8,30.03,SSW,203,5.0,7.0,81,0.00,,,0.00,meteohub,2013-06-01 01:12:00,
2013-05-31 21:17:00,68.5,62.8,30.03,SSW,195,5.0,7.0,82,0.00,,,0.00,meteohub,2013-06-01 01:17:00,
2013-05-31 21:22:00,68.4,63.0,30.03,SSW,203,5.0,7.0,83,0.00,,,0.00,meteohub,2013-06-01 01:22:00,
2013-05-31 21:27:00,68.0,62.6,30.03,SSW,197,3.0,7.0,83,0.00,,,0.00,meteohub,2013-06-01 01:27:00,
2013-05-31 21:32:00,67.6,62.2,30.03,SSW,200,5.0,7.0,83,0.00,,,0.00,meteohub,2013-06-01 01:32:00,
2013-05-31 21:37:00,67.6,62.6,30.04,SW,215,2.0,7.0,84,0.00,,,0.00,meteohub,2013-06-01 01:37:00,
2013-05-31 21:42:00,67.3,62.6,30.03,South,169,2.0,6.0,85,0.00,,,0.00,meteohub,2013-06-01 01:42:00,
2013-05-31 21:47:00,67.1,62.8,30.04,SSW,207,3.0,6.0,86,0.00,,,0.00,meteohub,2013-06-01 01:47:00,
2013-05-31 21:52:00,66.9,62.6,30.03,SSE,167,0.0,5.0,86,0.00,,,0.00,meteohub,2013-06-01 01:52:00,
2013-05-31 21:57:00,66.6,61.9,30.03,SSE,155,2.0,5.0,85,0.00,,,0.00,meteohub,2013-06-01 01:57:00,
2013-05-31 22:02:00,66.2,61.9,30.03,South,183,0.0,5.0,86,0.00,,,0.00,meteohub,2013-06-01 02:02:00,
2013-05-31 22:07:00,66.0,62.1,30.03,South,177,4.0,5.0,87,0.00,,,0.00,meteohub,2013-06-01 02:07:00,
2013-05-31 22:12:00,66.0,62.1,30.03,South,171,2.0,5.0,87,0.00,,,0.00,meteohub,2013-06-01 02:12:00,
2013-05-31 22:17:00,66.0,62.4,30.03,SSW,194,4.0,5.0,88,0.00,,,0.00,meteohub,2013-06-01 02:17:00,
2013-05-31 22:22:00,66.0,62.4,30.03,SSE,164,3.0,5.0,88,0.00,,,0.00,meteohub,2013-06-01 02:22:00,
2013-05-31 22:27:00,66.2,62.6,30.03,SSW,194,3.0,5.0,88,0.00,,,0.00,meteohub,2013-06-01 02:27:00,
2013-05-31 22:32:00,66.0,62.4,30.03,South,172,5.0,5.0,88,0.00,,,0.00,meteohub,2013-06-01 02:32:00,
2013-05-31 22:37:00,65.8,62.4,30.03,South,173,3.0,6.0,89,0.00,,,0.00,meteohub,2013-06-01 02:37:00,
2013-05-31 22:42:00,65.8,62.4,30.03,SE,136,4.0,6.0,89,0.00,,,0.00,meteohub,2013-06-01 02:42:00,
2013-05-31 22:47:00,65.8,62.2,30.03,SSE,167,3.0,6.0,88,0.00,,,0.00,meteohub,2013-06-01 02:47:00,
2013-05-31 22:52:00,65.7,62.2,30.03,South,170,4.0,6.0,89,0.00,,,0.00,meteohub,2013-06-01 02:52:00,
2013-05-31 22:57:00,65.7,62.2,30.03,South,176,3.0,5.0,89,0.00,,,0.00,meteohub,2013-06-01 02:57:00,
2013-05-31 23:02:00,65.8,62.8,30.03,SE,143,3.0,5.0,90,0.00,,,0.00,meteohub,2013-06-01 03:02:00,
2013-05-31 23:07:00,65.8,63.1,30.03,SW,233,5.0,5.0,91,0.00,,,0.00,meteohub,2013-06-01 03:07:00,
2013-05-31 23:12:00,65.8,62.8,30.03,SSW,208,6.0,7.0,90,0.00,,,0.00,meteohub,2013-06-01 03:12:00,
2013-05-31 23:17:00,65.8,62.4,30.03,SSW,195,4.0,7.0,89,0.00,,,0.00,meteohub,2013-06-01 03:17:00,
2013-05-31 23:22:00,66.0,62.6,30.03,SSW,200,4.0,8.0,89,0.00,,,0.00,meteohub,2013-06-01 03:22:00,
2013-05-31 23:27:00,66.0,62.6,30.03,SSW,198,6.0,8.0,89,0.00,,,0.00,meteohub,2013-06-01 03:27:00,
2013-05-31 23:32:00,66.2,63.1,30.03,South,187,8.0,8.0,90,0.00,,,0.00,meteohub,2013-06-01 03:32:00,
2013-05-31 23:37:00,66.2,63.1,30.03,SSW,212,4.0,8.0,90,0.00,,,0.00,meteohub,2013-06-01 03:37:00,
2013-05-31 23:42:00,66.0,63.0,30.03,SSE,167,5.0,8.0,90,0.00,,,0.00,meteohub,2013-06-01 03:42:00,
2013-05-31 23:47:00,65.8,63.1,30.03,SSW,203,5.0,8.0,91,0.00,,,0.00,meteohub,2013-06-01 03:47:00,
2013-05-31 23:52:00,65.7,63.0,30.03,SSE,167,3.0,8.0,91,0.00,,,0.00,meteohub,2013-06-01 03:52:00,
2013-05-31 23:57:00,64.9,62.6,30.03,SSW,203,4.0,8.0,92,0.00,,,0.00,meteohub,2013-06-01 03:57:00,